sensor_id;sensor_type;location;lat;lon;timestamp;pressure;altitude;pressure_sealevel;temperature;humidity
68873;BME280;55907;50.806;12.882;2024-01-11T00:02:49;985.7;;;-4.8;64.8
68873;BME280;55907;50.806;12.882;2024-01-11T00:05:50;985.7;;;-4.8;64.7
68873;BME280;55907;50.806;12.882;2024-01-11T00:08:51;985.7;;;-4.8;65.0
68873;BME280;55907;50.806;12.882;2024-01-11T00:11:52;985.6;;;-4.9;65.7
68873;BME280;55907;50.806;12.882;2024-01-11T00:14:52;985.6;;;-4.9;65.3
68873;BME280;55907;50.806;12.882;2024-01-11T00:17:53;985.6;;;-4.9;65.9
68873;BME280;55907;50.806;12.882;2024-01-11T00:20:54;985.6;;;-5.0;65.7
68873;BME280;55907;50.806;12.882;2024-01-11T00:23:55;985.6;;;-5.0;65.4
68873;BME280;55907;50.806;12.882;2024-01-11T00:26:56;985.6;;;-5.1;67.3
68873;BME280;55907;50.806;12.882;2024-01-11T00:29:57;985.6;;;-5.1;67.3
68873;BME280;55907;50.806;12.882;2024-01-11T00:32:58;985.6;;;-5.1;66.5
68873;BME280;55907;50.806;12.882;2024-01-11T00:35:59;985.6;;;-5.1;66.6
68873;BME280;55907;50.806;12.882;2024-01-11T00:39:00;985.6;;;-5.1;66.0
68873;BME280;55907;50.806;12.882;2024-01-11T00:42:00;985.6;;;-5.3;67.3
68873;BME280;55907;50.806;12.882;2024-01-11T00:45:01;985.5;;;-5.3;67.2
68873;BME280;55907;50.806;12.882;2024-01-11T00:48:03;985.5;;;-5.4;67.4
68873;BME280;55907;50.806;12.882;2024-01-11T00:51:03;985.5;;;-5.4;67.3
68873;BME280;55907;50.806;12.882;2024-01-11T00:54:04;985.5;;;-5.4;67.2
68873;BME280;55907;50.806;12.882;2024-01-11T00:57:05;985.4;;;-5.5;67.3
68873;BME280;55907;50.806;12.882;2024-01-11T01:00:06;985.4;;;-5.5;67.3
68873;BME280;55907;50.806;12.882;2024-01-11T01:03:06;985.4;;;-5.5;67.7
68873;BME280;55907;50.806;12.882;2024-01-11T01:06:07;985.5;;;-5.5;67.1
68873;BME280;55907;50.806;12.882;2024-01-11T01:09:08;985.4;;;-5.5;68.3
68873;BME280;55907;50.806;12.882;2024-01-11T01:12:09;985.3;;;-5.6;68.6
68873;BME280;55907;50.806;12.882;2024-01-11T01:15:10;985.3;;;-5.6;68.1
68873;BME280;55907;50.806;12.882;2024-01-11T01:18:11;985.2;;;-5.5;66.3
68873;BME280;55907;50.806;12.882;2024-01-11T01:21:12;985.3;;;-5.6;66.4
68873;BME280;55907;50.806;12.882;2024-01-11T01:24:13;985.2;;;-5.6;66.2
68873;BME280;55907;50.806;12.882;2024-01-11T01:27:14;985.1;;;-5.5;66.6
68873;BME280;55907;50.806;12.882;2024-01-11T01:30:14;985.1;;;-5.6;66.4
68873;BME280;55907;50.806;12.882;2024-01-11T01:33:15;985.1;;;-5.5;66.5
68873;BME280;55907;50.806;12.882;2024-01-11T01:36:16;985.1;;;-5.5;66.5
68873;BME280;55907;50.806;12.882;2024-01-11T01:39:17;985.1;;;-5.5;66.2
68873;BME280;55907;50.806;12.882;2024-01-11T01:42:18;985.1;;;-5.5;66.7
68873;BME280;55907;50.806;12.882;2024-01-11T01:45:19;985.1;;;-5.5;66.1
68873;BME280;55907;50.806;12.882;2024-01-11T01:48:20;985.1;;;-5.5;66.5
68873;BME280;55907;50.806;12.882;2024-01-11T01:51:21;985.0;;;-5.6;67.2
68873;BME280;55907;50.806;12.882;2024-01-11T01:54:22;985.1;;;-5.7;67.6
68873;BME280;55907;50.806;12.882;2024-01-11T01:57:22;985.0;;;-5.8;67.3
68873;BME280;55907;50.806;12.882;2024-01-11T02:00:24;985.0;;;-5.8;67.0
68873;BME280;55907;50.806;12.882;2024-01-11T02:03:27;985.1;;;-5.9;67.9
68873;BME280;55907;50.806;12.882;2024-01-11T02:06:26;985.1;;;-5.9;68.6
68873;BME280;55907;50.806;12.882;2024-01-11T02:09:26;985.1;;;-6.0;68.3
68873;BME280;55907;50.806;12.882;2024-01-11T02:12:28;985.2;;;-6.0;67.7
68873;BME280;55907;50.806;12.882;2024-01-11T02:15:28;985.2;;;-6.0;67.7
68873;BME280;55907;50.806;12.882;2024-01-11T02:18:28;985.4;;;-6.2;68.4
68873;BME280;55907;50.806;12.882;2024-01-11T02:21:30;985.4;;;-6.3;69.0
68873;BME280;55907;50.806;12.882;2024-01-11T02:24:30;985.5;;;-6.3;69.8
68873;BME280;55907;50.806;12.882;2024-01-11T02:27:45;985.6;;;-6.3;69.5
68873;BME280;55907;50.806;12.882;2024-01-11T02:30:32;985.4;;;-6.4;71.0
68873;BME280;55907;50.806;12.882;2024-01-11T02:33:33;985.3;;;-6.4;71.2
68873;BME280;55907;50.806;12.882;2024-01-11T02:36:34;985.3;;;-6.5;71.7
68873;BME280;55907;50.806;12.882;2024-01-11T02:39:35;985.4;;;-6.5;71.2
68873;BME280;55907;50.806;12.882;2024-01-11T02:42:36;985.4;;;-6.6;69.9
68873;BME280;55907;50.806;12.882;2024-01-11T02:45:36;985.4;;;-6.7;71.6
68873;BME280;55907;50.806;12.882;2024-01-11T02:48:37;985.4;;;-6.7;72.6
68873;BME280;55907;50.806;12.882;2024-01-11T02:51:38;985.3;;;-6.8;73.1
68873;BME280;55907;50.806;12.882;2024-01-11T02:54:39;985.3;;;-6.8;73.1
68873;BME280;55907;50.806;12.882;2024-01-11T02:57:40;985.4;;;-6.8;72.9
68873;BME280;55907;50.806;12.882;2024-01-11T03:00:41;985.5;;;-6.7;73.2
68873;BME280;55907;50.806;12.882;2024-01-11T03:03:42;985.4;;;-6.8;74.4
68873;BME280;55907;50.806;12.882;2024-01-11T03:06:43;985.4;;;-6.7;74.0
68873;BME280;55907;50.806;12.882;2024-01-11T03:09:43;985.5;;;-6.7;74.2
68873;BME280;55907;50.806;12.882;2024-01-11T03:12:44;985.5;;;-6.6;73.5
68873;BME280;55907;50.806;12.882;2024-01-11T03:15:45;985.5;;;-6.6;73.7
68873;BME280;55907;50.806;12.882;2024-01-11T03:18:46;985.6;;;-6.6;73.7
68873;BME280;55907;50.806;12.882;2024-01-11T03:21:47;985.7;;;-6.6;73.8
68873;BME280;55907;50.806;12.882;2024-01-11T03:24:48;985.8;;;-6.6;74.0
68873;BME280;55907;50.806;12.882;2024-01-11T03:27:49;985.6;;;-6.7;73.7
68873;BME280;55907;50.806;12.882;2024-01-11T03:30:50;985.6;;;-6.7;73.4
68873;BME280;55907;50.806;12.882;2024-01-11T03:33:50;985.7;;;-6.7;74.4
68873;BME280;55907;50.806;12.882;2024-01-11T03:36:51;985.6;;;-6.8;74.7
68873;BME280;55907;50.806;12.882;2024-01-11T03:39:52;985.7;;;-6.8;74.3
68873;BME280;55907;50.806;12.882;2024-01-11T03:42:53;985.8;;;-6.8;74.0
68873;BME280;55907;50.806;12.882;2024-01-11T03:45:54;985.8;;;-6.8;74.4
68873;BME280;55907;50.806;12.882;2024-01-11T03:48:55;985.7;;;-6.8;74.3
68873;BME280;55907;50.806;12.882;2024-01-11T03:51:56;985.6;;;-6.8;73.7
68873;BME280;55907;50.806;12.882;2024-01-11T03:54:57;985.6;;;-6.9;74.7
68873;BME280;55907;50.806;12.882;2024-01-11T03:57:57;985.6;;;-6.9;74.8
68873;BME280;55907;50.806;12.882;2024-01-11T04:00:59;985.8;;;-6.9;74.6
68873;BME280;55907;50.806;12.882;2024-01-11T04:03:59;985.6;;;-6.9;74.7
68873;BME280;55907;50.806;12.882;2024-01-11T04:07:00;985.5;;;-7.0;74.5
68873;BME280;55907;50.806;12.882;2024-01-11T04:10:01;985.4;;;-7.1;75.7
68873;BME280;55907;50.806;12.882;2024-01-11T04:13:02;985.3;;;-7.1;74.9
68873;BME280;55907;50.806;12.882;2024-01-11T04:16:04;985.2;;;-7.1;75.0
68873;BME280;55907;50.806;12.882;2024-01-11T04:19:04;985.3;;;-7.2;75.7
68873;BME280;55907;50.806;12.882;2024-01-11T04:22:04;985.3;;;-7.1;75.8
68873;BME280;55907;50.806;12.882;2024-01-11T04:25:06;985.5;;;-7.1;76.1
68873;BME280;55907;50.806;12.882;2024-01-11T04:28:06;985.4;;;-7.0;75.6
68873;BME280;55907;50.806;12.882;2024-01-11T04:31:08;985.4;;;-7.0;75.7
68873;BME280;55907;50.806;12.882;2024-01-11T04:34:08;985.3;;;-7.0;75.3
68873;BME280;55907;50.806;12.882;2024-01-11T04:37:09;985.2;;;-7.0;75.4
68873;BME280;55907;50.806;12.882;2024-01-11T04:40:10;985.0;;;-7.0;75.3
68873;BME280;55907;50.806;12.882;2024-01-11T04:43:10;985.0;;;-7.2;75.5
68873;BME280;55907;50.806;12.882;2024-01-11T04:49:12;985.0;;;-7.1;75.2
68873;BME280;55907;50.806;12.882;2024-01-11T04:52:13;985.0;;;-7.1;76.6
68873;BME280;55907;50.806;12.882;2024-01-11T04:55:14;985.1;;;-7.1;77.1
68873;BME280;55907;50.806;12.882;2024-01-11T04:58:15;985.2;;;-7.0;76.5
68873;BME280;55907;50.806;12.882;2024-01-11T05:01:17;985.2;;;-6.9;77.1
68873;BME280;55907;50.806;12.882;2024-01-11T05:04:16;985.3;;;-6.8;76.4
68873;BME280;55907;50.806;12.882;2024-01-11T05:07:17;985.4;;;-6.8;75.0
68873;BME280;55907;50.806;12.882;2024-01-11T05:10:18;985.4;;;-6.8;74.9
68873;BME280;55907;50.806;12.882;2024-01-11T05:13:19;985.5;;;-6.8;74.2
68873;BME280;55907;50.806;12.882;2024-01-11T05:16:22;985.6;;;-6.8;73.5
68873;BME280;55907;50.806;12.882;2024-01-11T05:19:21;985.8;;;-7.0;73.0
68873;BME280;55907;50.806;12.882;2024-01-11T05:22:22;985.8;;;-7.1;73.1
68873;BME280;55907;50.806;12.882;2024-01-11T05:25:23;985.9;;;-7.3;73.2
68873;BME280;55907;50.806;12.882;2024-01-11T05:28:23;985.9;;;-7.4;72.9
68873;BME280;55907;50.806;12.882;2024-01-11T05:31:24;986.0;;;-7.5;73.0
68873;BME280;55907;50.806;12.882;2024-01-11T05:34:25;986.1;;;-7.6;73.0
68873;BME280;55907;50.806;12.882;2024-01-11T05:37:26;985.9;;;-7.6;74.3
68873;BME280;55907;50.806;12.882;2024-01-11T05:40:27;985.8;;;-7.7;74.4
68873;BME280;55907;50.806;12.882;2024-01-11T05:43:28;985.7;;;-7.7;74.9
68873;BME280;55907;50.806;12.882;2024-01-11T05:46:29;985.8;;;-7.6;75.3
68873;BME280;55907;50.806;12.882;2024-01-11T05:49:30;985.7;;;-7.7;76.2
68873;BME280;55907;50.806;12.882;2024-01-11T05:52:30;985.7;;;-7.8;76.7
68873;BME280;55907;50.806;12.882;2024-01-11T05:55:31;985.8;;;-7.7;76.6
68873;BME280;55907;50.806;12.882;2024-01-11T05:58:32;985.7;;;-7.7;76.4
68873;BME280;55907;50.806;12.882;2024-01-11T06:01:33;985.7;;;-7.7;76.1
68873;BME280;55907;50.806;12.882;2024-01-11T06:04:34;985.6;;;-7.6;76.4
68873;BME280;55907;50.806;12.882;2024-01-11T06:07:35;985.5;;;-7.6;76.6
68873;BME280;55907;50.806;12.882;2024-01-11T06:10:39;985.6;;;-7.5;76.6
68873;BME280;55907;50.806;12.882;2024-01-11T06:13:37;985.5;;;-7.6;77.4
68873;BME280;55907;50.806;12.882;2024-01-11T06:16:37;985.5;;;-7.4;77.2
68873;BME280;55907;50.806;12.882;2024-01-11T06:19:38;985.6;;;-7.3;77.1
68873;BME280;55907;50.806;12.882;2024-01-11T06:22:39;985.6;;;-7.3;77.2
68873;BME280;55907;50.806;12.882;2024-01-11T06:25:40;985.8;;;-7.2;77.1
68873;BME280;55907;50.806;12.882;2024-01-11T06:28:41;985.9;;;-7.1;75.8
68873;BME280;55907;50.806;12.882;2024-01-11T06:31:42;986.0;;;-7.2;75.1
68873;BME280;55907;50.806;12.882;2024-01-11T06:34:43;986.1;;;-7.2;74.5
68873;BME280;55907;50.806;12.882;2024-01-11T06:37:44;985.9;;;-7.2;75.4
68873;BME280;55907;50.806;12.882;2024-01-11T06:40:44;985.8;;;-7.2;75.4
68873;BME280;55907;50.806;12.882;2024-01-11T06:43:45;985.8;;;-7.2;74.7
68873;BME280;55907;50.806;12.882;2024-01-11T06:46:46;985.9;;;-7.2;74.7
68873;BME280;55907;50.806;12.882;2024-01-11T06:49:47;986.0;;;-7.2;74.7
68873;BME280;55907;50.806;12.882;2024-01-11T06:52:48;986.0;;;-7.1;74.3
68873;BME280;55907;50.806;12.882;2024-01-11T06:55:49;985.9;;;-7.1;74.8
68873;BME280;55907;50.806;12.882;2024-01-11T06:58:50;986.1;;;-7.0;74.9
68873;BME280;55907;50.806;12.882;2024-01-11T07:01:50;986.2;;;-6.8;73.5
68873;BME280;55907;50.806;12.882;2024-01-11T07:04:51;986.2;;;-6.8;73.4
68873;BME280;55907;50.806;12.882;2024-01-11T07:07:52;986.0;;;-6.7;73.5
68873;BME280;55907;50.806;12.882;2024-01-11T07:10:53;986.1;;;-6.7;73.8
68873;BME280;55907;50.806;12.882;2024-01-11T07:13:54;986.1;;;-6.7;73.3
68873;BME280;55907;50.806;12.882;2024-01-11T07:16:55;986.1;;;-6.7;74.3
68873;BME280;55907;50.806;12.882;2024-01-11T07:19:56;986.1;;;-6.7;73.7
68873;BME280;55907;50.806;12.882;2024-01-11T07:22:57;985.9;;;-6.6;73.9
68873;BME280;55907;50.806;12.882;2024-01-11T07:25:58;985.8;;;-6.7;74.1
68873;BME280;55907;50.806;12.882;2024-01-11T07:28:58;985.8;;;-6.6;74.4
68873;BME280;55907;50.806;12.882;2024-01-11T07:31:59;985.6;;;-6.6;74.7
68873;BME280;55907;50.806;12.882;2024-01-11T07:35:00;985.5;;;-6.6;75.7
68873;BME280;55907;50.806;12.882;2024-01-11T07:38:01;985.6;;;-6.4;75.7
68873;BME280;55907;50.806;12.882;2024-01-11T07:41:02;985.6;;;-6.2;75.5
68873;BME280;55907;50.806;12.882;2024-01-11T07:44:03;985.5;;;-6.1;74.7
68873;BME280;55907;50.806;12.882;2024-01-11T07:47:04;985.5;;;-5.9;74.2
68873;BME280;55907;50.806;12.882;2024-01-11T07:50:05;985.6;;;-5.7;73.3
68873;BME280;55907;50.806;12.882;2024-01-11T07:53:05;985.7;;;-5.4;72.1
68873;BME280;55907;50.806;12.882;2024-01-11T07:56:06;985.7;;;-5.2;71.0
68873;BME280;55907;50.806;12.882;2024-01-11T07:59:07;985.5;;;-5.0;70.8
68873;BME280;55907;50.806;12.882;2024-01-11T08:02:08;985.4;;;-5.2;70.2
68873;BME280;55907;50.806;12.882;2024-01-11T08:05:09;985.5;;;-5.2;70.7
68873;BME280;55907;50.806;12.882;2024-01-11T08:08:10;985.4;;;-5.2;70.8
68873;BME280;55907;50.806;12.882;2024-01-11T08:11:11;985.4;;;-5.3;70.8
68873;BME280;55907;50.806;12.882;2024-01-11T08:14:11;985.5;;;-5.2;70.6
68873;BME280;55907;50.806;12.882;2024-01-11T08:17:13;985.5;;;-5.2;70.7
68873;BME280;55907;50.806;12.882;2024-01-11T08:23:14;985.4;;;-5.1;70.5
68873;BME280;55907;50.806;12.882;2024-01-11T08:26:15;985.4;;;-5.1;70.4
68873;BME280;55907;50.806;12.882;2024-01-11T08:29:16;985.5;;;-4.9;70.2
68873;BME280;55907;50.806;12.882;2024-01-11T08:32:17;985.6;;;-4.8;70.0
68873;BME280;55907;50.806;12.882;2024-01-11T08:35:17;985.8;;;-4.8;69.8
68873;BME280;55907;50.806;12.882;2024-01-11T08:38:18;985.8;;;-4.7;70.1
68873;BME280;55907;50.806;12.882;2024-01-11T08:41:19;985.6;;;-4.4;69.8
68873;BME280;55907;50.806;12.882;2024-01-11T08:44:20;985.5;;;-4.0;68.6
68873;BME280;55907;50.806;12.882;2024-01-11T08:47:21;985.5;;;-3.9;68.0
68873;BME280;55907;50.806;12.882;2024-01-11T08:50:22;985.5;;;-3.8;67.7
68873;BME280;55907;50.806;12.882;2024-01-11T08:53:22;985.5;;;-3.0;66.8
68873;BME280;55907;50.806;12.882;2024-01-11T08:56:23;985.7;;;-1.8;64.8
68873;BME280;55907;50.806;12.882;2024-01-11T08:59:24;985.8;;;-0.9;62.3
68873;BME280;55907;50.806;12.882;2024-01-11T09:02:25;985.8;;;-0.9;59.7
68873;BME280;55907;50.806;12.882;2024-01-11T09:05:26;985.9;;;-0.8;59.8
68873;BME280;55907;50.806;12.882;2024-01-11T09:08:26;985.8;;;-0.1;56.7
68873;BME280;55907;50.806;12.882;2024-01-11T09:11:27;985.9;;;0.8;55.5
68873;BME280;55907;50.806;12.882;2024-01-11T09:14:28;986.0;;;1.6;53.3
68873;BME280;55907;50.806;12.882;2024-01-11T09:17:29;986.0;;;2.2;51.0
68873;BME280;55907;50.806;12.882;2024-01-11T09:20:30;986.0;;;2.8;49.0
68873;BME280;55907;50.806;12.882;2024-01-11T09:23:30;985.9;;;3.3;47.7
68873;BME280;55907;50.806;12.882;2024-01-11T09:26:31;985.8;;;3.3;45.4
68873;BME280;55907;50.806;12.882;2024-01-11T09:29:32;985.9;;;2.8;44.8
68873;BME280;55907;50.806;12.882;2024-01-11T09:32:33;986.0;;;2.6;46.2
68873;BME280;55907;50.806;12.882;2024-01-11T09:35:33;986.0;;;2.3;46.7
68873;BME280;55907;50.806;12.882;2024-01-11T09:38:34;986.0;;;2.2;47.2
68873;BME280;55907;50.806;12.882;2024-01-11T09:41:36;985.8;;;2.5;47.1
68873;BME280;55907;50.806;12.882;2024-01-11T09:44:36;985.8;;;2.5;47.2
68873;BME280;55907;50.806;12.882;2024-01-11T09:47:37;985.8;;;2.8;46.3
68873;BME280;55907;50.806;12.882;2024-01-11T09:50:38;985.8;;;3.2;45.1
68873;BME280;55907;50.806;12.882;2024-01-11T09:53:39;985.7;;;3.7;43.8
68873;BME280;55907;50.806;12.882;2024-01-11T09:56:39;985.8;;;4.1;43.3
68873;BME280;55907;50.806;12.882;2024-01-11T09:59:40;985.6;;;4.6;42.1
68873;BME280;55907;50.806;12.882;2024-01-11T10:02:41;985.8;;;4.7;41.8
68873;BME280;55907;50.806;12.882;2024-01-11T10:05:42;985.8;;;4.8;42.3
68873;BME280;55907;50.806;12.882;2024-01-11T10:08:43;985.9;;;5.2;41.9
68873;BME280;55907;50.806;12.882;2024-01-11T10:11:43;985.9;;;5.2;40.4
68873;BME280;55907;50.806;12.882;2024-01-11T10:14:44;986.0;;;5.5;40.2
68873;BME280;55907;50.806;12.882;2024-01-11T10:17:45;986.2;;;5.7;40.6
68873;BME280;55907;50.806;12.882;2024-01-11T10:20:47;986.1;;;5.7;40.2
68873;BME280;55907;50.806;12.882;2024-01-11T10:23:46;986.1;;;5.6;40.5
68873;BME280;55907;50.806;12.882;2024-01-11T10:26:47;986.0;;;5.5;40.4
68873;BME280;55907;50.806;12.882;2024-01-11T10:29:48;985.9;;;5.9;40.3
68873;BME280;55907;50.806;12.882;2024-01-11T10:32:49;985.9;;;5.9;40.2
68873;BME280;55907;50.806;12.882;2024-01-11T10:35:49;985.8;;;5.8;41.0
68873;BME280;55907;50.806;12.882;2024-01-11T10:38:51;985.8;;;6.1;40.8
68873;BME280;55907;50.806;12.882;2024-01-11T10:41:52;985.8;;;6.4;39.7
68873;BME280;55907;50.806;12.882;2024-01-11T10:44:54;985.7;;;7.0;39.6
68873;BME280;55907;50.806;12.882;2024-01-11T10:47:53;985.7;;;7.6;38.5
68873;BME280;55907;50.806;12.882;2024-01-11T10:50:55;985.6;;;8.1;37.7
68873;BME280;55907;50.806;12.882;2024-01-11T10:53:54;985.5;;;8.5;36.9
68873;BME280;55907;50.806;12.882;2024-01-11T10:56:55;985.4;;;8.9;36.0
68873;BME280;55907;50.806;12.882;2024-01-11T10:59:55;985.4;;;7.6;37.1
68873;BME280;55907;50.806;12.882;2024-01-11T11:02:59;985.4;;;6.4;38.8
68873;BME280;55907;50.806;12.882;2024-01-11T11:05:58;985.4;;;5.2;41.0
68873;BME280;55907;50.806;12.882;2024-01-11T11:08:58;985.3;;;4.8;42.4
68873;BME280;55907;50.806;12.882;2024-01-11T11:11:58;985.4;;;4.5;43.7
68873;BME280;55907;50.806;12.882;2024-01-11T11:15:01;985.4;;;5.0;43.5
68873;BME280;55907;50.806;12.882;2024-01-11T11:18:00;985.3;;;5.9;41.8
68873;BME280;55907;50.806;12.882;2024-01-11T11:21:01;985.3;;;6.1;41.2
68873;BME280;55907;50.806;12.882;2024-01-11T11:24:01;985.3;;;6.0;42.2
68873;BME280;55907;50.806;12.882;2024-01-11T11:27:03;985.2;;;6.0;41.5
68873;BME280;55907;50.806;12.882;2024-01-11T11:30:04;985.1;;;6.7;41.4
68873;BME280;55907;50.806;12.882;2024-01-11T11:33:08;985.1;;;7.1;40.3
68873;BME280;55907;50.806;12.882;2024-01-11T11:36:05;985.2;;;7.2;39.6
68873;BME280;55907;50.806;12.882;2024-01-11T11:39:05;985.1;;;7.4;39.9
68873;BME280;55907;50.806;12.882;2024-01-11T11:42:06;985.0;;;6.8;40.1
68873;BME280;55907;50.806;12.882;2024-01-11T11:45:07;984.9;;;6.4;41.2
68873;BME280;55907;50.806;12.882;2024-01-11T11:51:09;984.9;;;5.5;43.1
68873;BME280;55907;50.806;12.882;2024-01-11T11:54:09;984.9;;;5.9;43.3
68873;BME280;55907;50.806;12.882;2024-01-11T11:57:10;984.8;;;6.4;43.1
68873;BME280;55907;50.806;12.882;2024-01-11T12:00:12;984.7;;;6.8;43.0
68873;BME280;55907;50.806;12.882;2024-01-11T12:03:11;984.7;;;7.0;42.7
68873;BME280;55907;50.806;12.882;2024-01-11T12:06:13;984.7;;;6.8;42.3
68873;BME280;55907;50.806;12.882;2024-01-11T12:09:17;984.7;;;6.9;42.5
68873;BME280;55907;50.806;12.882;2024-01-11T12:12:14;984.6;;;6.9;42.6
68873;BME280;55907;50.806;12.882;2024-01-11T12:15:14;984.7;;;7.1;42.1
68873;BME280;55907;50.806;12.882;2024-01-11T12:18:15;984.6;;;7.0;42.2
68873;BME280;55907;50.806;12.882;2024-01-11T12:21:16;984.7;;;7.2;42.6
68873;BME280;55907;50.806;12.882;2024-01-11T12:24:17;984.7;;;7.1;42.2
68873;BME280;55907;50.806;12.882;2024-01-11T12:27:17;984.6;;;7.2;42.0
68873;BME280;55907;50.806;12.882;2024-01-11T12:30:18;984.5;;;7.2;41.8
68873;BME280;55907;50.806;12.882;2024-01-11T12:33:19;984.6;;;7.0;41.2
68873;BME280;55907;50.806;12.882;2024-01-11T12:36:20;984.7;;;6.7;41.7
68873;BME280;55907;50.806;12.882;2024-01-11T12:39:21;984.8;;;6.0;42.8
68873;BME280;55907;50.806;12.882;2024-01-11T12:42:21;984.8;;;5.6;44.3
68873;BME280;55907;50.806;12.882;2024-01-11T12:45:22;984.7;;;5.1;45.4
68873;BME280;55907;50.806;12.882;2024-01-11T12:48:23;984.6;;;4.9;44.9
68873;BME280;55907;50.806;12.882;2024-01-11T12:51:25;984.5;;;4.6;45.6
68873;BME280;55907;50.806;12.882;2024-01-11T12:54:24;984.4;;;4.4;46.0
68873;BME280;55907;50.806;12.882;2024-01-11T12:57:25;984.4;;;4.2;46.7
68873;BME280;55907;50.806;12.882;2024-01-11T13:00:26;984.5;;;3.7;48.4
68873;BME280;55907;50.806;12.882;2024-01-11T13:03:27;984.5;;;3.2;49.8
68873;BME280;55907;50.806;12.882;2024-01-11T13:06:27;984.5;;;3.0;50.2
68873;BME280;55907;50.806;12.882;2024-01-11T13:09:28;984.5;;;2.9;50.9
68873;BME280;55907;50.806;12.882;2024-01-11T13:12:29;984.4;;;2.7;50.7
68873;BME280;55907;50.806;12.882;2024-01-11T13:18:31;984.4;;;2.2;51.7
68873;BME280;55907;50.806;12.882;2024-01-11T13:21:31;984.4;;;2.0;52.4
68873;BME280;55907;50.806;12.882;2024-01-11T13:24:32;984.3;;;2.0;52.3
68873;BME280;55907;50.806;12.882;2024-01-11T13:27:33;984.3;;;1.9;52.5
68873;BME280;55907;50.806;12.882;2024-01-11T13:30:35;984.3;;;1.7;52.8
68873;BME280;55907;50.806;12.882;2024-01-11T13:33:35;984.2;;;1.5;52.5
68873;BME280;55907;50.806;12.882;2024-01-11T13:36:35;984.4;;;1.6;53.0
68873;BME280;55907;50.806;12.882;2024-01-11T13:39:36;984.3;;;1.5;53.7
68873;BME280;55907;50.806;12.882;2024-01-11T13:42:37;984.5;;;1.4;54.4
68873;BME280;55907;50.806;12.882;2024-01-11T13:45:38;984.6;;;1.5;53.9
68873;BME280;55907;50.806;12.882;2024-01-11T13:48:39;984.6;;;1.4;54.1
68873;BME280;55907;50.806;12.882;2024-01-11T13:51:40;984.5;;;1.3;54.4
68873;BME280;55907;50.806;12.882;2024-01-11T13:54:40;984.4;;;1.1;53.5
68873;BME280;55907;50.806;12.882;2024-01-11T13:57:41;984.4;;;1.1;53.9
68873;BME280;55907;50.806;12.882;2024-01-11T14:00:42;984.5;;;1.1;53.2
68873;BME280;55907;50.806;12.882;2024-01-11T14:03:43;984.5;;;1.0;54.0
68873;BME280;55907;50.806;12.882;2024-01-11T14:06:44;984.5;;;1.0;53.4
68873;BME280;55907;50.806;12.882;2024-01-11T14:09:45;984.6;;;0.9;53.5
68873;BME280;55907;50.806;12.882;2024-01-11T14:12:45;984.6;;;0.7;54.2
68873;BME280;55907;50.806;12.882;2024-01-11T14:15:46;984.5;;;0.7;54.3
68873;BME280;55907;50.806;12.882;2024-01-11T14:18:47;984.4;;;0.6;54.9
68873;BME280;55907;50.806;12.882;2024-01-11T14:21:48;984.4;;;0.6;55.2
68873;BME280;55907;50.806;12.882;2024-01-11T14:24:49;984.4;;;0.5;56.1
68873;BME280;55907;50.806;12.882;2024-01-11T14:27:50;984.4;;;0.5;56.1
68873;BME280;55907;50.806;12.882;2024-01-11T14:30:50;984.4;;;0.6;55.5
68873;BME280;55907;50.806;12.882;2024-01-11T14:33:51;984.3;;;0.7;55.6
68873;BME280;55907;50.806;12.882;2024-01-11T14:36:52;984.4;;;0.6;56.1
68873;BME280;55907;50.806;12.882;2024-01-11T14:39:53;984.5;;;0.5;56.9
68873;BME280;55907;50.806;12.882;2024-01-11T14:42:54;984.6;;;0.5;56.6
68873;BME280;55907;50.806;12.882;2024-01-11T14:45:54;984.6;;;0.5;56.8
68873;BME280;55907;50.806;12.882;2024-01-11T14:48:55;984.6;;;0.4;57.0
68873;BME280;55907;50.806;12.882;2024-01-11T14:51:56;984.6;;;0.2;58.5
68873;BME280;55907;50.806;12.882;2024-01-11T14:54:57;984.6;;;0.2;57.8
68873;BME280;55907;50.806;12.882;2024-01-11T14:57:58;984.6;;;0.2;57.5
68873;BME280;55907;50.806;12.882;2024-01-11T15:00:59;984.6;;;0.1;57.1
68873;BME280;55907;50.806;12.882;2024-01-11T15:03:59;984.6;;;-0.0;57.4
68873;BME280;55907;50.806;12.882;2024-01-11T15:07:00;984.5;;;-0.1;57.3
68873;BME280;55907;50.806;12.882;2024-01-11T15:10:01;984.5;;;-0.2;56.5
68873;BME280;55907;50.806;12.882;2024-01-11T15:13:02;984.5;;;-0.2;57.4
68873;BME280;55907;50.806;12.882;2024-01-11T15:16:03;984.5;;;-0.2;56.2
68873;BME280;55907;50.806;12.882;2024-01-11T15:19:04;984.5;;;-0.4;56.2
68873;BME280;55907;50.806;12.882;2024-01-11T15:22:05;984.5;;;-0.4;56.1
68873;BME280;55907;50.806;12.882;2024-01-11T15:25:06;984.5;;;-0.4;56.3
68873;BME280;55907;50.806;12.882;2024-01-11T15:28:06;984.5;;;-0.5;55.5
68873;BME280;55907;50.806;12.882;2024-01-11T15:31:07;984.5;;;-0.5;55.5
68873;BME280;55907;50.806;12.882;2024-01-11T15:34:08;984.5;;;-0.6;55.5
68873;BME280;55907;50.806;12.882;2024-01-11T15:37:09;984.5;;;-0.6;55.5
68873;BME280;55907;50.806;12.882;2024-01-11T15:40:10;984.6;;;-0.7;55.1
68873;BME280;55907;50.806;12.882;2024-01-11T15:43:10;984.7;;;-0.7;55.5
68873;BME280;55907;50.806;12.882;2024-01-11T15:46:11;984.7;;;-0.6;54.8
68873;BME280;55907;50.806;12.882;2024-01-11T15:49:12;984.7;;;-0.6;55.0
68873;BME280;55907;50.806;12.882;2024-01-11T15:52:13;984.6;;;-0.7;54.6
68873;BME280;55907;50.806;12.882;2024-01-11T15:55:14;984.6;;;-0.7;54.3
68873;BME280;55907;50.806;12.882;2024-01-11T15:58:15;984.6;;;-0.7;54.0
68873;BME280;55907;50.806;12.882;2024-01-11T16:01:15;984.6;;;-0.8;54.0
68873;BME280;55907;50.806;12.882;2024-01-11T16:04:16;984.7;;;-0.9;54.1
68873;BME280;55907;50.806;12.882;2024-01-11T16:07:17;984.8;;;-0.9;54.5
68873;BME280;55907;50.806;12.882;2024-01-11T16:10:18;984.8;;;-1.0;54.5
68873;BME280;55907;50.806;12.882;2024-01-11T16:13:19;984.8;;;-1.0;55.1
68873;BME280;55907;50.806;12.882;2024-01-11T16:16:20;984.7;;;-1.1;54.6
68873;BME280;55907;50.806;12.882;2024-01-11T16:19:20;984.7;;;-1.1;54.6
68873;BME280;55907;50.806;12.882;2024-01-11T16:22:21;984.7;;;-1.1;54.4
68873;BME280;55907;50.806;12.882;2024-01-11T16:25:22;984.7;;;-1.1;54.7
68873;BME280;55907;50.806;12.882;2024-01-11T16:28:23;984.7;;;-1.2;54.7
68873;BME280;55907;50.806;12.882;2024-01-11T16:31:24;984.7;;;-1.2;54.9
68873;BME280;55907;50.806;12.882;2024-01-11T16:34:25;984.7;;;-1.4;55.9
68873;BME280;55907;50.806;12.882;2024-01-11T16:37:26;984.6;;;-1.3;55.4
68873;BME280;55907;50.806;12.882;2024-01-11T16:40:26;984.8;;;-1.4;55.7
68873;BME280;55907;50.806;12.882;2024-01-11T16:43:27;984.8;;;-1.4;56.2
68873;BME280;55907;50.806;12.882;2024-01-11T16:46:28;984.9;;;-1.4;56.4
68873;BME280;55907;50.806;12.882;2024-01-11T16:49:29;985.0;;;-1.5;58.4
68873;BME280;55907;50.806;12.882;2024-01-11T16:52:30;985.1;;;-1.5;57.5
68873;BME280;55907;50.806;12.882;2024-01-11T16:55:31;985.2;;;-1.4;56.9
68873;BME280;55907;50.806;12.882;2024-01-11T16:58:32;985.1;;;-1.4;57.5
68873;BME280;55907;50.806;12.882;2024-01-11T17:01:32;985.1;;;-1.5;58.3
68873;BME280;55907;50.806;12.882;2024-01-11T17:04:33;985.0;;;-1.3;57.9
68873;BME280;55907;50.806;12.882;2024-01-11T17:07:34;984.9;;;-1.4;58.1
68873;BME280;55907;50.806;12.882;2024-01-11T17:10:35;984.9;;;-1.3;58.2